createdAt,value
2023-02-08T00:00:56.182Z,11.30
2023-02-08T00:03:22.985Z,11.15
2023-02-08T00:05:49.618Z,11.43
2023-02-08T00:08:16.281Z,11.68
2023-02-08T00:10:43.764Z,12.30
2023-02-08T00:13:10.351Z,10.65
2023-02-08T00:15:44.592Z,11.73
2023-02-08T00:20:42.592Z,10.50
2023-02-08T00:23:09.200Z,10.82
2023-02-08T00:25:36.572Z,10.93
2023-02-08T00:28:04.747Z,10.43
2023-02-08T00:30:31.893Z,10.90
2023-02-08T00:32:59.396Z,10.63
2023-02-08T00:35:26.244Z,11.05
2023-02-08T00:37:52.762Z,11.63
2023-02-08T00:40:19.370Z,12.85
2023-02-08T00:42:45.911Z,13.98
2023-02-08T00:45:12.520Z,13.88
2023-02-08T00:47:39.102Z,14.98
2023-02-08T00:50:07.023Z,15.02
2023-02-08T00:52:36.175Z,13.20
2023-02-08T00:55:05.646Z,13.35
2023-02-08T00:57:33.322Z,10.23
2023-02-08T00:59:59.884Z,10.02
2023-02-08T01:02:26.725Z,10.75
2023-02-08T01:04:53.222Z,10.38
2023-02-08T01:07:19.685Z,10.57
2023-02-08T01:09:46.235Z,9.90
2023-02-08T01:12:12.791Z,11.20
2023-02-08T01:14:40.299Z,11.32
2023-02-08T01:17:07.582Z,11.43
2023-02-08T01:19:34.369Z,11.02
2023-02-08T01:22:02.994Z,11.27
2023-02-08T01:24:29.525Z,10.93
2023-02-08T01:26:56.898Z,10.65
2023-02-08T01:29:23.401Z,11.32
2023-02-08T01:31:50.007Z,11.32
2023-02-08T01:34:16.644Z,10.80
2023-02-08T01:36:43.197Z,10.52
2023-02-08T01:39:10.986Z,11.23
2023-02-08T01:41:43.461Z,11.07
2023-02-08T01:44:13.294Z,11.32
2023-02-08T01:46:42.002Z,11.07
2023-02-08T01:49:15.456Z,10.27
2023-02-08T01:51:47.202Z,10.05
2023-02-08T01:54:15.683Z,9.70
2023-02-08T01:56:45.664Z,9.82
2023-02-08T01:59:23.734Z,10.68
2023-02-08T02:01:53.880Z,11.00
2023-02-08T02:04:20.916Z,10.20
2023-02-08T02:06:51.048Z,10.20
2023-02-08T02:09:42.512Z,10.10
2023-02-08T02:12:09.744Z,10.40
2023-02-08T02:14:38.638Z,10.30
2023-02-08T02:17:06.679Z,9.75
2023-02-08T02:20:03.388Z,11.40
2023-02-08T02:22:51.892Z,9.48
2023-02-08T02:25:58.410Z,9.73
2023-02-08T02:28:57.424Z,9.77
2023-02-08T02:31:47.869Z,11.15
2023-02-08T02:34:37.126Z,10.25
2023-02-08T02:37:38.747Z,10.05
2023-02-08T02:40:27.045Z,9.57
2023-02-08T02:43:29.874Z,10.55
2023-02-08T02:46:10.750Z,10.40
2023-02-08T02:48:53.051Z,10.75
2023-02-08T02:51:27.314Z,9.60
2023-02-08T02:56:36.309Z,9.38
2023-02-08T02:59:06.369Z,10.63
2023-02-08T03:01:33.900Z,10.43
2023-02-08T03:04:01.092Z,10.13
2023-02-08T03:06:56.542Z,10.55
2023-02-08T03:09:36.128Z,9.35
2023-02-08T03:12:20.244Z,11.20
2023-02-08T03:15:06.853Z,9.43
2023-02-08T03:17:35.292Z,9.32
2023-02-08T03:20:09.809Z,10.07
2023-02-08T03:22:56.471Z,10.30
2023-02-08T03:25:27.547Z,10.82
2023-02-08T03:28:14.285Z,10.38
2023-02-08T03:30:49.946Z,10.20
2023-02-08T03:33:31.183Z,9.48
2023-02-08T03:36:19.491Z,10.80
2023-02-08T03:38:47.979Z,9.50
2023-02-08T03:41:19.274Z,10.38
2023-02-08T03:43:58.480Z,10.07
2023-02-08T03:46:29.651Z,9.75
2023-02-08T03:49:04.535Z,9.98
2023-02-08T03:51:34.041Z,9.43
2023-02-08T03:54:04.611Z,9.23
2023-02-08T03:56:49.087Z,9.18
2023-02-08T03:59:26.202Z,9.85
2023-02-08T04:02:01.624Z,9.55
2023-02-08T04:04:32.668Z,8.98
2023-02-08T04:06:59.464Z,9.20
2023-02-08T04:09:25.972Z,8.85
2023-02-08T04:11:52.470Z,9.52
2023-02-08T04:14:18.961Z,9.45
2023-02-08T04:16:45.461Z,9.68
2023-02-08T04:19:11.970Z,9.45
2023-02-08T04:21:38.772Z,9.35
2023-02-08T04:24:05.599Z,9.85
2023-02-08T04:26:32.142Z,9.63
2023-02-08T04:28:58.700Z,10.63
2023-02-08T04:31:25.292Z,10.15
2023-02-08T04:33:52.032Z,9.63
2023-02-08T04:36:18.697Z,10.25
2023-02-08T04:38:45.304Z,9.45
2023-02-08T04:41:11.845Z,10.27
2023-02-08T04:43:38.356Z,9.38
2023-02-08T04:46:04.957Z,8.45
2023-02-08T04:48:31.447Z,9.65
2023-02-08T04:50:58.426Z,9.15
2023-02-08T04:53:25.521Z,10.15
2023-02-08T04:55:52.349Z,9.73
2023-02-08T04:58:19.260Z,9.40
2023-02-08T05:00:46.532Z,8.98
2023-02-08T05:03:13.572Z,9.23
2023-02-08T05:05:40.038Z,9.80
2023-02-08T05:08:07.154Z,8.50
2023-02-08T05:10:33.666Z,9.25
2023-02-08T05:13:00.209Z,8.57
2023-02-08T05:15:26.704Z,9.68
2023-02-08T05:17:53.249Z,9.13
2023-02-08T05:20:19.902Z,9.18
2023-02-08T05:22:46.858Z,17.30
2023-02-08T05:25:13.453Z,8.73
2023-02-08T05:27:39.948Z,9.77
2023-02-08T05:30:07.001Z,9.90
2023-02-08T05:32:33.521Z,9.38
2023-02-08T05:35:00.031Z,8.73
2023-02-08T05:37:26.609Z,9.45
2023-02-08T05:39:53.171Z,8.80
2023-02-08T05:42:19.734Z,9.35
2023-02-08T05:44:46.651Z,9.55
2023-02-08T05:47:13.159Z,9.55
2023-02-08T05:49:39.651Z,9.68
2023-02-08T05:52:06.229Z,8.90
2023-02-08T05:54:32.758Z,10.20
2023-02-08T05:56:59.228Z,9.98
2023-02-08T05:59:25.810Z,9.45
2023-02-08T06:01:52.286Z,9.77
2023-02-08T06:04:18.855Z,11.77
2023-02-08T06:06:45.367Z,9.65
2023-02-08T06:09:11.835Z,9.57
2023-02-08T06:11:38.359Z,9.13
2023-02-08T06:14:04.975Z,9.13
2023-02-08T06:16:31.560Z,9.52
2023-02-08T06:18:58.279Z,9.45
2023-02-08T06:21:24.860Z,10.48
2023-02-08T06:23:51.463Z,9.48
2023-02-08T06:26:17.979Z,10.48
2023-02-08T06:28:44.472Z,9.73
2023-02-08T06:31:10.926Z,9.90
2023-02-08T06:33:37.409Z,10.55
2023-02-08T06:36:03.995Z,8.95
2023-02-08T06:38:30.514Z,9.95
2023-02-08T06:41:12.108Z,9.32
2023-02-08T06:43:40.686Z,8.63
2023-02-08T06:46:08.612Z,9.00
2023-02-08T06:48:35.815Z,9.23
2023-02-08T06:51:02.368Z,9.27
2023-02-08T06:53:29.150Z,8.93
2023-02-08T06:55:55.698Z,9.43
2023-02-08T06:58:22.447Z,10.40
2023-02-08T07:00:49.067Z,9.75
2023-02-08T07:03:17.440Z,8.27
2023-02-08T07:05:58.800Z,9.95
2023-02-08T07:08:33.872Z,10.40
2023-02-08T07:11:00.516Z,9.57
2023-02-08T07:13:27.051Z,9.77
2023-02-08T07:15:53.585Z,9.88
2023-02-08T07:18:20.185Z,10.18
2023-02-08T07:20:48.933Z,9.60
2023-02-08T07:23:15.431Z,9.18
2023-02-08T07:25:41.962Z,10.75
2023-02-08T07:28:08.572Z,11.25
2023-02-08T07:30:35.260Z,10.73
2023-02-08T07:33:01.711Z,9.73
2023-02-08T07:35:28.241Z,9.45
2023-02-08T07:37:54.838Z,9.50
2023-02-08T07:40:23.540Z,9.82
2023-02-08T07:42:50.047Z,10.43
2023-02-08T07:45:27.818Z,9.70
2023-02-08T07:47:54.333Z,9.80
2023-02-08T07:50:21.040Z,10.70
2023-02-08T07:52:47.682Z,9.43
2023-02-08T07:55:18.653Z,9.95
2023-02-08T07:57:46.189Z,9.98
2023-02-08T08:00:14.274Z,9.77
2023-02-08T08:02:41.098Z,9.77
2023-02-08T08:05:08.177Z,9.23
2023-02-08T08:07:35.988Z,9.43
2023-02-08T08:10:16.069Z,10.57
2023-02-08T08:12:42.576Z,9.70
2023-02-08T08:15:09.331Z,9.10
2023-02-08T08:17:35.836Z,9.73
2023-02-08T08:20:02.547Z,9.93
2023-02-08T08:22:30.107Z,9.85
2023-02-08T08:25:00.030Z,10.57
2023-02-08T08:27:29.754Z,10.32
2023-02-08T08:29:59.867Z,9.52
2023-02-08T08:32:26.504Z,10.18
2023-02-08T08:34:53.009Z,12.65
2023-02-08T08:37:22.429Z,9.98
2023-02-08T08:39:48.950Z,9.60
2023-02-08T08:42:15.486Z,10.10
2023-02-08T08:44:42.226Z,9.13
2023-02-08T08:47:09.087Z,9.85
2023-02-08T08:49:35.600Z,9.75
2023-02-08T08:52:07.792Z,9.90
2023-02-08T08:54:34.938Z,9.77
2023-02-08T08:57:01.960Z,10.45
2023-02-08T08:59:28.487Z,9.07
2023-02-08T09:01:55.383Z,9.50
2023-02-08T09:04:24.869Z,10.38
2023-02-08T09:06:52.888Z,9.32
2023-02-08T09:09:20.469Z,8.93
2023-02-08T09:11:47.640Z,9.13
2023-02-08T09:14:14.499Z,9.45
2023-02-08T09:16:42.726Z,9.20
2023-02-08T09:19:10.346Z,9.02
2023-02-08T09:21:37.184Z,9.77
2023-02-08T09:24:04.525Z,8.85
2023-02-08T09:26:31.077Z,9.05
2023-02-08T09:28:57.908Z,8.05
2023-02-08T09:31:27.699Z,7.32
2023-02-08T09:33:57.510Z,8.20
2023-02-08T09:36:27.964Z,8.18
2023-02-08T09:39:00.838Z,7.80
2023-02-08T09:42:05.254Z,7.63
2023-02-08T09:44:40.468Z,8.30
2023-02-08T09:47:24.777Z,8.00
2023-02-08T09:50:02.427Z,9.88
2023-02-08T09:52:41.057Z,7.82
2023-02-08T09:55:34.717Z,8.73
2023-02-08T09:58:04.500Z,8.65
2023-02-08T10:00:35.645Z,8.60
2023-02-08T10:03:02.901Z,8.18
2023-02-08T10:05:31.342Z,8.95
2023-02-08T10:08:00.147Z,8.68
2023-02-08T10:10:45.233Z,9.93
2023-02-08T10:13:43.101Z,8.43
2023-02-08T10:16:46.432Z,9.38
2023-02-08T10:19:29.086Z,14.40
2023-02-08T10:22:12.761Z,8.32
2023-02-08T10:24:45.271Z,8.60
2023-02-08T10:27:34.953Z,7.53
2023-02-08T10:30:20.654Z,8.23
2023-02-08T10:33:02.487Z,7.95
2023-02-08T10:35:36.922Z,7.45
2023-02-08T10:38:45.460Z,9.02
2023-02-08T10:41:20.363Z,8.60
2023-02-08T10:44:22.982Z,7.93
2023-02-08T10:47:14.335Z,5.75
2023-02-08T10:49:47.437Z,5.55
2023-02-08T10:52:13.982Z,5.75
2023-02-08T10:54:40.564Z,5.20
2023-02-08T10:57:14.672Z,4.22
2023-02-08T10:59:57.356Z,4.38
2023-02-08T11:02:28.091Z,4.50
2023-02-08T11:05:19.026Z,4.60
2023-02-08T11:07:45.963Z,4.47
2023-02-08T11:10:18.478Z,5.15
2023-02-08T11:13:25.526Z,4.35
2023-02-08T11:15:55.473Z,4.50
2023-02-08T11:18:38.335Z,4.43
2023-02-08T11:21:34.810Z,5.10
2023-02-08T11:24:14.956Z,5.95
2023-02-08T11:26:42.929Z,6.57
2023-02-08T11:29:17.266Z,6.20
2023-02-08T11:31:59.444Z,6.72
2023-02-08T11:34:38.785Z,5.90
2023-02-08T11:37:28.512Z,6.20
2023-02-08T11:39:57.967Z,6.72
2023-02-08T11:42:28.983Z,6.20
2023-02-08T11:44:57.426Z,8.35
2023-02-08T11:47:30.879Z,6.70
2023-02-08T11:50:00.428Z,5.72
2023-02-08T11:52:42.652Z,5.65
2023-02-08T11:55:24.317Z,7.70
2023-02-08T11:58:10.030Z,6.82
2023-02-08T12:00:38.251Z,7.88
2023-02-08T12:03:14.090Z,5.45
2023-02-08T12:05:56.190Z,5.47
2023-02-08T12:08:46.617Z,6.13
2023-02-08T12:11:27.116Z,6.22
2023-02-08T12:14:23.068Z,5.70
2023-02-08T12:17:02.023Z,5.85
2023-02-08T12:20:13.129Z,5.20
2023-02-08T12:22:43.967Z,5.05
2023-02-08T12:25:29.284Z,4.65
2023-02-08T12:28:33.155Z,5.28
2023-02-08T12:31:08.854Z,4.88
2023-02-08T12:33:58.422Z,4.38
2023-02-08T12:37:11.095Z,4.03
2023-02-08T12:40:11.897Z,4.13
2023-02-08T12:42:51.957Z,4.50
2023-02-08T12:45:18.404Z,4.90
2023-02-08T12:48:03.327Z,5.60
2023-02-08T12:50:47.829Z,5.05
2023-02-08T12:53:33.251Z,4.33
2023-02-08T12:56:06.780Z,4.80
2023-02-08T12:58:46.818Z,5.00
2023-02-08T13:01:24.410Z,4.88
2023-02-08T13:03:57.242Z,5.38
2023-02-08T13:06:30.301Z,5.25
2023-02-08T13:09:12.521Z,6.75
2023-02-08T13:11:45.558Z,5.82
2023-02-08T13:14:23.248Z,6.50
2023-02-08T13:16:54.984Z,5.97
2023-02-08T13:19:32.495Z,8.63
2023-02-08T13:21:59.919Z,7.70
2023-02-08T13:24:42.179Z,7.15
2023-02-08T13:27:16.468Z,6.07
2023-02-08T13:29:47.139Z,7.22
2023-02-08T13:32:31.204Z,6.90
2023-02-08T13:35:06.962Z,7.18
2023-02-08T13:37:35.729Z,6.82
2023-02-08T13:40:06.629Z,7.18
2023-02-08T13:42:47.667Z,7.57
2023-02-08T13:45:26.986Z,7.45
2023-02-08T13:47:59.808Z,7.68
2023-02-08T13:50:35.230Z,7.68
2023-02-08T13:53:02.996Z,7.97
2023-02-08T13:55:33.385Z,7.22
2023-02-08T13:58:01.256Z,7.28
2023-02-08T14:00:36.697Z,6.90
2023-02-08T14:03:15.013Z,7.68
2023-02-08T14:05:58.091Z,6.78
2023-02-08T14:09:00.153Z,6.85
2023-02-08T14:11:40.588Z,6.68
2023-02-08T14:14:32.965Z,6.75
2023-02-08T14:17:19.302Z,6.80
2023-02-08T14:19:55.730Z,6.57
2023-02-08T14:22:22.552Z,7.15
2023-02-08T14:25:01.107Z,7.15
2023-02-08T14:27:33.239Z,6.80
2023-02-08T14:30:04.225Z,6.97
2023-02-08T14:32:34.879Z,7.78
2023-02-08T14:35:06.922Z,7.80
2023-02-08T14:37:35.971Z,7.25
2023-02-08T14:40:23.613Z,7.13
2023-02-08T14:43:16.859Z,7.50
2023-02-08T14:45:45.699Z,7.50
2023-02-08T14:48:28.566Z,7.30
2023-02-08T14:51:10.407Z,13.52
2023-02-08T14:53:48.845Z,8.70
2023-02-08T14:56:44.301Z,8.50
2023-02-08T14:59:31.973Z,7.63
2023-02-08T15:02:03.976Z,7.25
2023-02-08T15:04:30.961Z,7.32
2023-02-08T15:07:51.915Z,7.75
2023-02-08T15:10:20.915Z,7.68
2023-02-08T15:12:52.123Z,7.75
2023-02-08T15:15:28.298Z,7.82
2023-02-08T15:17:56.728Z,8.43
2023-02-08T15:20:26.319Z,8.65
2023-02-08T15:23:16.329Z,7.57
2023-02-08T15:25:42.907Z,8.50
2023-02-08T15:28:21.723Z,8.23
2023-02-08T15:31:05.808Z,7.97
2023-02-08T15:33:32.838Z,9.02
2023-02-08T15:36:08.109Z,7.97
2023-02-08T15:38:38.528Z,8.32
2023-02-08T15:41:11.253Z,8.38
2023-02-08T15:43:39.185Z,7.82
2023-02-08T15:46:16.551Z,8.35
2023-02-08T15:48:46.029Z,8.52
2023-02-08T15:51:16.906Z,8.43
2023-02-08T15:53:46.195Z,7.88
2023-02-08T15:56:27.034Z,7.97
2023-02-08T15:59:03.495Z,8.57
2023-02-08T16:01:31.880Z,8.43
2023-02-08T16:04:00.259Z,8.20
2023-02-08T16:06:29.424Z,8.25
2023-02-08T16:08:59.965Z,8.27
2023-02-08T16:11:30.155Z,7.38
2023-02-08T16:13:59.104Z,8.38
2023-02-08T16:16:39.596Z,8.32
2023-02-08T16:19:26.115Z,8.85
2023-02-08T16:21:55.643Z,9.88
2023-02-08T16:24:25.590Z,11.70
2023-02-08T16:26:57.286Z,25.83
2023-02-08T16:29:29.857Z,8.90
2023-02-08T16:32:03.583Z,10.00
2023-02-08T16:34:33.092Z,9.15
2023-02-08T16:37:00.523Z,8.57
2023-02-08T16:39:39.667Z,8.40
2023-02-08T16:42:20.624Z,9.68
2023-02-08T16:44:59.383Z,9.52
2023-02-08T16:47:37.263Z,8.55
2023-02-08T16:50:05.507Z,9.98
2023-02-08T16:52:33.227Z,9.10
2023-02-08T16:55:00.476Z,9.60
2023-02-08T16:57:48.207Z,9.35
2023-02-08T17:00:29.625Z,9.02
2023-02-08T17:02:57.047Z,9.75
2023-02-08T17:05:26.908Z,10.07
2023-02-08T17:07:53.549Z,10.85
2023-02-08T17:10:29.098Z,9.45
2023-02-08T17:13:09.818Z,9.90
2023-02-08T17:15:43.592Z,9.50
2023-02-08T17:18:11.662Z,10.52
2023-02-08T17:20:38.167Z,10.85
2023-02-08T17:23:06.360Z,11.68
2023-02-08T17:25:34.693Z,11.52
2023-02-08T17:28:04.808Z,12.80
2023-02-08T17:30:36.004Z,11.43
2023-02-08T17:33:03.963Z,14.43
2023-02-08T17:35:33.543Z,16.13
2023-02-08T17:38:00.279Z,16.13
2023-02-08T17:40:31.045Z,12.38
2023-02-08T17:42:58.347Z,12.35
2023-02-08T17:45:28.218Z,12.52
2023-02-08T17:47:56.330Z,21.85
2023-02-08T17:50:23.618Z,63.35
2023-02-08T17:52:50.306Z,20.17
2023-02-08T17:55:20.815Z,35.83
2023-02-08T17:57:47.783Z,123.30
2023-02-08T18:00:17.095Z,144.65
2023-02-08T18:02:49.541Z,56.38
2023-02-08T18:05:17.912Z,27.95
2023-02-08T18:07:44.422Z,24.25
2023-02-08T18:10:13.147Z,19.60
2023-02-08T18:12:39.944Z,15.20
2023-02-08T18:15:09.054Z,13.90
2023-02-08T18:17:35.886Z,16.02
2023-02-08T18:20:02.820Z,15.93
2023-02-08T18:22:29.845Z,15.00
2023-02-08T18:24:56.462Z,16.30
2023-02-08T18:27:25.009Z,17.63
2023-02-08T18:29:51.659Z,19.02
2023-02-08T18:32:20.249Z,14.77
2023-02-08T18:34:47.343Z,14.48
2023-02-08T18:37:13.906Z,14.18
2023-02-08T18:39:40.425Z,12.93
2023-02-08T18:42:07.305Z,12.70
2023-02-08T18:44:36.758Z,12.95
2023-02-08T18:47:03.963Z,12.65
2023-02-08T18:49:31.264Z,12.48
2023-02-08T18:51:58.531Z,15.73
2023-02-08T18:54:25.155Z,14.57
2023-02-08T18:56:54.685Z,14.60
2023-02-08T18:59:21.346Z,14.40
2023-02-08T19:01:48.140Z,12.63
2023-02-08T19:04:19.257Z,12.43
2023-02-08T19:06:45.813Z,13.35
2023-02-08T19:09:12.372Z,14.55
2023-02-08T19:11:40.578Z,15.00
2023-02-08T19:14:10.576Z,13.25
2023-02-08T19:16:37.587Z,14.93
2023-02-08T19:19:05.538Z,13.77
2023-02-08T19:21:33.523Z,13.80
2023-02-08T19:24:00.682Z,15.68
2023-02-08T19:26:30.613Z,17.48
2023-02-08T19:28:59.253Z,18.88
2023-02-08T19:31:27.252Z,17.67
2023-02-08T19:33:57.746Z,23.98
2023-02-08T19:36:27.594Z,41.15
2023-02-08T19:38:54.549Z,34.15
2023-02-08T19:41:27.771Z,26.75
2023-02-08T19:43:54.523Z,21.98
2023-02-08T19:46:23.857Z,22.77
2023-02-08T19:48:51.068Z,21.83
2023-02-08T19:51:19.242Z,17.52
2023-02-08T19:53:46.431Z,15.18
2023-02-08T19:56:15.870Z,13.32
2023-02-08T19:58:42.823Z,12.63
2023-02-08T20:01:13.036Z,12.13
2023-02-08T20:03:40.382Z,12.25
2023-02-08T20:06:18.306Z,11.80
2023-02-08T20:08:45.188Z,11.65
2023-02-08T20:11:23.446Z,11.57
2023-02-08T20:13:50.875Z,11.60
2023-02-08T20:16:17.819Z,12.75
2023-02-08T20:18:44.698Z,11.85
2023-02-08T20:21:11.698Z,11.00
2023-02-08T20:23:38.896Z,11.73
2023-02-08T20:26:16.119Z,10.40
2023-02-08T20:28:44.864Z,9.85
2023-02-08T20:31:21.824Z,8.68
2023-02-08T20:33:50.387Z,9.63
2023-02-08T20:36:22.646Z,9.88
2023-02-08T20:38:51.605Z,9.93
2023-02-08T20:41:19.457Z,9.48
2023-02-08T20:43:46.868Z,10.45
2023-02-08T20:46:23.015Z,10.95
2023-02-08T20:48:50.629Z,11.05
2023-02-08T20:51:21.091Z,11.32
2023-02-08T20:53:48.469Z,11.55
2023-02-08T20:56:24.231Z,11.82
2023-02-08T20:58:50.948Z,12.60
2023-02-08T21:01:28.436Z,12.63
2023-02-08T21:03:56.491Z,14.82
2023-02-08T21:06:26.487Z,11.93
2023-02-08T21:08:55.272Z,11.35
2023-02-08T21:11:24.180Z,12.82
2023-02-08T21:13:50.884Z,14.07
2023-02-08T21:16:18.343Z,13.32
2023-02-08T21:18:45.673Z,12.63
2023-02-08T21:21:12.405Z,24.20
2023-02-08T21:23:38.938Z,12.38
2023-02-08T21:26:08.020Z,11.60
2023-02-08T21:28:35.480Z,11.18
2023-02-08T21:31:07.610Z,11.77
2023-02-08T21:33:34.510Z,10.52
2023-02-08T21:36:03.043Z,12.10
2023-02-08T21:38:29.845Z,11.45
2023-02-08T21:40:56.318Z,11.38
2023-02-08T21:43:22.919Z,12.68
2023-02-08T21:45:49.459Z,12.85
2023-02-08T21:48:15.988Z,12.63
2023-02-08T21:51:01.144Z,11.70
2023-02-08T21:53:46.002Z,11.50
2023-02-08T21:56:12.552Z,12.10
2023-02-08T21:58:39.077Z,12.35
2023-02-08T22:01:05.935Z,12.13
2023-02-08T22:03:34.306Z,12.93
2023-02-08T22:06:19.474Z,14.93
2023-02-08T22:08:46.223Z,13.27
2023-02-08T22:11:14.500Z,13.10
2023-02-08T22:13:43.499Z,12.77
2023-02-08T22:16:10.608Z,14.15
2023-02-08T22:18:38.496Z,15.32
2023-02-08T22:21:05.359Z,15.98
2023-02-08T22:23:31.862Z,15.18
2023-02-08T22:25:58.352Z,13.90
2023-02-08T22:28:24.890Z,13.35
2023-02-08T22:30:51.560Z,14.77
2023-02-08T22:33:18.195Z,13.55
2023-02-08T22:35:44.757Z,12.77
2023-02-08T22:38:11.301Z,12.82
2023-02-08T22:40:40.808Z,13.15
2023-02-08T22:43:07.305Z,12.82
2023-02-08T22:45:34.168Z,12.95
2023-02-08T22:48:00.666Z,13.05
2023-02-08T22:50:27.145Z,12.95
2023-02-08T22:52:53.637Z,11.75
2023-02-08T22:55:20.157Z,12.95
2023-02-08T22:57:46.768Z,12.52
2023-02-08T23:00:14.861Z,13.50
2023-02-08T23:02:41.487Z,13.55
2023-02-08T23:05:08.252Z,12.70
2023-02-08T23:07:34.852Z,13.73
2023-02-08T23:10:01.585Z,12.73
2023-02-08T23:12:29.379Z,13.35
2023-02-08T23:14:56.121Z,13.23
2023-02-08T23:17:22.625Z,12.93
2023-02-08T23:19:49.090Z,13.95
2023-02-08T23:22:15.597Z,12.63
2023-02-08T23:24:42.141Z,13.52
2023-02-08T23:27:08.776Z,14.35
2023-02-08T23:29:36.094Z,13.05
2023-02-08T23:32:02.702Z,12.82
2023-02-08T23:34:29.354Z,13.10
2023-02-08T23:36:55.840Z,12.77
2023-02-08T23:39:22.347Z,14.10
2023-02-08T23:41:49.013Z,12.48
2023-02-08T23:44:15.634Z,15.13
2023-02-08T23:46:42.198Z,13.35
2023-02-08T23:49:08.743Z,13.55
2023-02-08T23:51:35.263Z,14.40
2023-02-08T23:54:01.776Z,14.52
2023-02-08T23:56:31.838Z,13.18
2023-02-08T23:58:59.325Z,14.93
